Time;durP1;ratioP1;P1;durP2;ratioP2;P2;SDS_P1;SDS_P2;PMS_P1;PMS_P2;Temp;Humidity;BMP_temperature;BMP_pressure;BME280_temperature;BME280_humidity;BME280_pressure;Samples;Min_cycle;Max_cycle;Signal;HPM_P1;HPM_P2
2022/09/23 00:00:30;;;;;;;9.73;9.33;;;13.20;27.30;;;;;;4991188;28;20208;-46
2022/09/23 00:02:58;;;;;;;9.90;9.20;;;13.30;26.80;;;;;;4991622;28;20416;-42
2022/09/23 00:05:24;;;;;;;9.47;8.87;;;13.40;26.90;;;;;;4991290;28;20638;-41
2022/09/23 00:07:50;;;;;;;10.60;9.80;;;13.40;26.80;;;;;;4990811;28;20976;-42
2022/09/23 00:10:16;;;;;;;9.50;8.90;;;13.50;26.90;;;;;;4991155;28;20519;-48
2022/09/23 00:12:42;;;;;;;9.37;8.67;;;13.50;26.90;;;;;;4990593;28;20276;-41
2022/09/23 00:15:10;;;;;;;9.20;8.70;;;13.50;27.10;;;;;;4991171;28;20859;-45
2022/09/23 00:17:35;;;;;;;9.50;9.00;;;13.60;27.00;;;;;;4990843;28;20217;-41
2022/09/23 00:20:01;;;;;;;9.00;8.60;;;13.60;26.80;;;;;;4992027;28;20412;-51
2022/09/23 00:22:27;;;;;;;11.07;10.30;;;13.60;26.90;;;;;;4992654;28;20420;-50
2022/09/23 00:24:53;;;;;;;9.70;9.13;;;13.60;26.70;;;;;;4992432;28;20200;-48
2022/09/23 00:27:20;;;;;;;9.80;9.20;;;13.60;26.70;;;;;;4992240;28;20185;-48
2022/09/23 00:29:46;;;;;;;11.10;10.27;;;13.60;26.70;;;;;;4992372;28;20189;-49
2022/09/23 00:32:12;;;;;;;9.60;9.20;;;13.50;26.50;;;;;;4991983;28;20424;-47
2022/09/23 00:34:38;;;;;;;10.50;9.80;;;13.50;26.60;;;;;;4991892;28;20430;-50
2022/09/23 00:37:03;;;;;;;10.47;9.87;;;13.50;26.90;;;;;;4992273;28;20276;-52
2022/09/23 00:39:29;;;;;;;10.83;10.20;;;13.40;27.10;;;;;;4992494;28;20181;-50
2022/09/23 00:41:55;;;;;;;9.60;9.20;;;13.40;27.20;;;;;;5009892;28;20596;-47
2022/09/23 00:44:42;;;;;;;10.80;10.10;;;13.40;27.10;;;;;;4992236;28;20177;-48
2022/09/23 00:47:33;;;;;;;10.00;9.50;;;13.40;27.20;;;;;;4993013;28;20177;-52
2022/09/23 00:50:17;;;;;;;8.83;8.40;;;13.40;27.50;;;;;;4989078;28;20515;-52
2022/09/23 00:52:43;;;;;;;9.90;9.30;;;13.40;27.40;;;;;;5013725;28;20404;-52
2022/09/23 00:55:32;;;;;;;9.43;8.90;;;13.40;27.40;;;;;;4996256;28;20879;-52
2022/09/23 00:58:01;;;;;;;10.43;9.83;;;13.30;27.60;;;;;;4995775;28;20849;-47
2022/09/23 01:00:27;;;;;;;10.53;10.03;;;13.40;27.70;;;;;;4995358;28;20419;-51
2022/09/23 01:02:53;;;;;;;10.60;10.00;;;13.30;27.70;;;;;;4995887;28;20408;-50
2022/09/23 01:05:19;;;;;;;10.47;9.87;;;13.30;27.80;;;;;;5013547;28;20415;-52
2022/09/23 01:07:45;;;;;;;10.47;9.90;;;13.30;27.70;;;;;;4995798;28;20182;-48
2022/09/23 01:10:15;;;;;;;10.50;9.87;;;13.30;27.70;;;;;;4995473;28;20423;-52
2022/09/23 01:12:43;;;;;;;10.80;10.20;;;13.30;27.60;;;;;;4995163;28;20280;-50
2022/09/23 01:15:15;;;;;;;10.27;9.70;;;13.30;27.70;;;;;;4995231;28;20412;-52
2022/09/23 01:18:09;;;;;;;10.30;9.80;;;13.30;27.70;;;;;;4995192;28;20455;-49
2022/09/23 01:20:38;;;;;;;9.87;9.27;;;13.30;27.80;;;;;;4995417;28;20503;-51
2022/09/23 01:23:06;;;;;;;8.87;8.47;;;13.30;27.80;;;;;;4995042;28;20416;-49
2022/09/23 01:26:02;;;;;;;10.40;9.70;;;13.30;27.90;;;;;;4995313;28;20525;-48
2022/09/23 01:29:02;;;;;;;10.87;10.27;;;13.30;27.80;;;;;;4989853;28;20444;-53
2022/09/23 01:31:47;;;;;;;11.93;11.20;;;13.20;27.90;;;;;;4995183;28;20852;-49
2022/09/23 01:34:36;;;;;;;9.80;9.30;;;13.30;27.90;;;;;;4994558;28;20416;-51
2022/09/23 01:40:32;;;;;;;11.07;10.37;;;13.30;28.00;;;;;;5012764;28;20585;-50
2022/09/23 01:43:07;;;;;;;10.60;10.10;;;13.30;27.90;;;;;;4994881;28;20947;-49
2022/09/23 01:45:39;;;;;;;10.73;10.03;;;13.20;27.90;;;;;;4994741;28;20408;-49
2022/09/23 01:48:22;;;;;;;10.33;9.63;;;13.20;27.80;;;;;;4995040;28;20506;-51
2022/09/23 01:51:14;;;;;;;11.07;10.30;;;13.20;27.90;;;;;;4994970;28;20471;-50
2022/09/23 01:53:55;;;;;;;10.23;9.70;;;13.10;28.30;;;;;;5006135;28;20464;-47
2022/09/23 01:56:39;;;;;;;9.80;9.37;;;13.00;28.40;;;;;;4994812;28;20834;-49
2022/09/23 01:59:17;;;;;;;11.70;10.87;;;13.10;28.40;;;;;;4994334;28;20499;-43
2022/09/23 02:01:59;;;;;;;11.10;10.50;;;13.00;28.10;;;;;;4993243;28;20506;-48
2022/09/23 02:04:31;;;;;;;11.37;10.70;;;13.00;28.40;;;;;;4994616;28;20412;-41
2022/09/23 02:07:02;;;;;;;11.17;10.67;;;13.00;28.60;;;;;;4994877;28;20776;-49
2022/09/23 02:09:36;;;;;;;11.80;11.20;;;13.00;28.70;;;;;;4994413;28;20519;-53
2022/09/23 02:12:07;;;;;;;11.50;10.97;;;13.00;28.80;;;;;;4994825;28;20415;-49
2022/09/23 02:14:41;;;;;;;10.80;10.27;;;13.00;28.70;;;;;;4994231;28;20660;-52
2022/09/23 02:17:14;;;;;;;11.13;10.50;;;13.00;28.60;;;;;;4993776;28;20470;-48
2022/09/23 02:19:46;;;;;;;10.77;10.27;;;13.00;28.50;;;;;;4993937;28;20507;-50
2022/09/23 02:22:34;;;;;;;10.87;10.37;;;13.00;28.50;;;;;;4993869;28;20983;-50
2022/09/23 02:24:59;;;;;;;11.30;10.70;;;13.00;28.50;;;;;;4994115;28;20467;-51
2022/09/23 02:27:53;;;;;;;11.50;10.90;;;12.90;28.60;;;;;;4993726;28;20467;-48
2022/09/23 02:30:27;;;;;;;11.07;10.30;;;12.90;28.60;;;;;;4993488;28;20606;-49
2022/09/23 02:33:17;;;;;;;11.43;10.70;;;12.90;28.60;;;;;;4992181;28;20776;-46
2022/09/23 02:36:08;;;;;;;11.40;10.80;;;12.90;28.40;;;;;;4991387;28;20416;-43
2022/09/23 02:38:58;;;;;;;10.83;10.33;;;12.90;28.50;;;;;;5009712;28;20522;-41
2022/09/23 02:41:36;;;;;;;9.53;9.13;;;12.90;28.60;;;;;;4991983;28;20506;-44
2022/09/23 02:44:07;;;;;;;11.67;11.07;;;12.90;28.70;;;;;;4993215;28;20756;-42
2022/09/23 02:46:34;;;;;;;11.07;10.47;;;12.90;28.80;;;;;;4991940;28;20420;-46
2022/09/23 02:49:20;;;;;;;11.50;10.87;;;12.80;28.70;;;;;;4992763;28;20427;-44
2022/09/23 02:51:46;;;;;;;11.03;10.43;;;12.80;28.70;;;;;;4992136;28;20424;-47
2022/09/23 02:54:18;;;;;;;10.03;9.63;;;12.80;28.70;;;;;;4991867;28;20939;-43
2022/09/23 02:56:44;;;;;;;10.77;10.17;;;12.80;28.80;;;;;;4992835;28;20833;-43
2022/09/23 02:59:11;;;;;;;10.63;10.13;;;12.80;28.60;;;;;;4992234;28;20554;-45
2022/09/23 03:02:03;;;;;;;12.17;11.47;;;12.80;28.70;;;;;;4991497;28;20899;-41
2022/09/23 03:04:50;;;;;;;13.33;12.40;;;12.80;28.70;;;;;;4991359;28;20899;-46
2022/09/23 03:07:40;;;;;;;12.20;11.60;;;12.70;28.70;;;;;;4992497;28;20400;-43
2022/09/23 03:10:24;;;;;;;11.30;10.80;;;12.70;28.60;;;;;;4990986;28;20415;-43
2022/09/23 03:13:00;;;;;;;11.77;11.17;;;12.70;28.70;;;;;;4992073;28;20473;-43
2022/09/23 03:15:32;;;;;;;12.00;11.20;;;12.70;28.60;;;;;;4991277;28;20434;-41
2022/09/23 03:18:18;;;;;;;11.40;10.80;;;12.70;28.60;;;;;;4990991;28;20483;-44
2022/09/23 03:20:56;;;;;;;11.53;10.97;;;12.60;28.60;;;;;;4992132;28;20916;-41
2022/09/23 03:23:27;;;;;;;11.50;10.90;;;12.70;28.70;;;;;;4992401;28;20990;-40
2022/09/23 03:25:56;;;;;;;12.33;11.63;;;12.60;28.60;;;;;;4991448;28;20920;-43
2022/09/23 03:28:24;;;;;;;12.00;11.30;;;12.50;28.90;;;;;;4991819;28;20784;-40
2022/09/23 03:30:51;;;;;;;11.33;10.80;;;12.50;28.80;;;;;;5024746;28;20452;-41
2022/09/23 03:33:21;;;;;;;12.70;12.10;;;12.60;28.80;;;;;;4991663;28;20424;-41
2022/09/23 03:39:11;;;;;;;11.40;10.70;;;12.50;28.70;;;;;;5008604;28;20548;-41
2022/09/23 03:41:49;;;;;;;11.03;10.53;;;12.50;28.60;;;;;;4990873;28;20419;-41
2022/09/23 03:44:16;;;;;;;11.50;10.80;;;12.50;28.70;;;;;;4991382;28;20761;-41
2022/09/23 03:46:48;;;;;;;11.63;11.00;;;12.50;28.70;;;;;;4991261;28;20456;-46
2022/09/23 03:49:26;;;;;;;12.20;11.20;;;12.50;28.60;;;;;;4991001;28;20514;-44
2022/09/23 03:51:53;;;;;;;10.97;10.40;;;12.40;28.70;;;;;;5009213;28;20876;-41
2022/09/23 03:54:19;;;;;;;11.70;11.10;;;12.50;28.70;;;;;;4990641;28;20996;-41
2022/09/23 03:56:46;;;;;;;10.97;10.53;;;12.40;28.60;;;;;;4990868;28;20479;-41
2022/09/23 03:59:13;;;;;;;11.63;10.93;;;12.40;28.70;;;;;;4990691;28;20464;-41
2022/09/23 04:01:40;;;;;;;11.50;10.90;;;12.40;28.70;;;;;;4991532;28;20419;-40
2022/09/23 04:04:07;;;;;;;12.07;11.47;;;12.40;28.70;;;;;;4991018;28;20435;-40
2022/09/23 04:06:32;;;;;;;11.60;11.00;;;12.40;28.90;;;;;;4991084;28;20912;-40
2022/09/23 04:08:58;;;;;;;11.53;10.93;;;12.40;28.80;;;;;;5008292;28;20415;-42
2022/09/23 04:11:23;;;;;;;11.83;11.33;;;12.30;29.00;;;;;;4990905;28;20189;-44
2022/09/23 04:13:49;;;;;;;11.37;10.87;;;12.30;28.80;;;;;;4991178;28;20186;-40
2022/09/23 04:16:15;;;;;;;11.30;10.90;;;12.30;28.60;;;;;;4991141;28;20188;-43
2022/09/23 04:18:40;;;;;;;10.90;10.40;;;12.40;28.70;;;;;;4991400;28;20217;-42
2022/09/23 04:21:06;;;;;;;11.40;10.90;;;12.30;28.70;;;;;;4991513;28;20544;-43
2022/09/23 04:23:32;;;;;;;11.27;10.67;;;12.30;28.70;;;;;;4994571;28;20184;-42
2022/09/23 04:25:57;;;;;;;11.37;10.67;;;12.30;28.80;;;;;;4994887;28;20189;-42
2022/09/23 04:28:23;;;;;;;12.30;11.50;;;12.30;28.80;;;;;;4994649;28;20173;-45
2022/09/23 04:30:49;;;;;;;11.17;10.57;;;12.30;28.60;;;;;;4995048;28;20182;-44
2022/09/23 04:33:15;;;;;;;10.70;10.20;;;12.30;28.80;;;;;;4995266;28;20660;-40
2022/09/23 04:35:44;;;;;;;11.37;10.87;;;12.30;28.60;;;;;;4995026;28;20213;-49
2022/09/23 04:38:11;;;;;;;11.60;11.00;;;12.30;28.60;;;;;;4996353;28;20522;-51
2022/09/23 04:40:37;;;;;;;10.60;10.20;;;12.30;28.60;;;;;;4996208;28;20492;-48
2022/09/23 04:43:02;;;;;;;10.17;9.67;;;12.30;28.70;;;;;;5014060;28;20856;-51
2022/09/23 04:45:29;;;;;;;11.57;10.97;;;12.20;28.40;;;;;;4995894;28;20174;-49
2022/09/23 04:47:57;;;;;;;12.20;11.40;;;12.20;28.50;;;;;;4996275;28;20277;-51
2022/09/23 04:50:24;;;;;;;11.03;10.50;;;12.20;28.70;;;;;;4995963;28;20427;-52
2022/09/23 04:52:51;;;;;;;11.47;10.87;;;12.10;29.40;;;;;;4995675;28;20466;-47
2022/09/23 04:55:17;;;;;;;11.07;10.57;;;12.20;28.90;;;;;;4995078;28;20452;-50
2022/09/23 04:57:43;;;;;;;11.83;11.20;;;12.10;29.00;;;;;;4995915;28;20491;-49
2022/09/23 05:00:11;;;;;;;11.23;10.40;;;12.10;29.00;;;;;;4995498;28;20967;-47
2022/09/23 05:02:42;;;;;;;11.63;11.03;;;12.10;29.10;;;;;;4994970;28;20412;-51
2022/09/23 05:05:08;;;;;;;10.80;10.20;;;12.10;29.10;;;;;;4995930;28;20412;-53
2022/09/23 05:07:34;;;;;;;14.30;12.10;;;12.10;29.10;;;;;;4995142;28;20427;-50
2022/09/23 05:10:00;;;;;;;11.00;10.40;;;12.10;29.20;;;;;;4995190;28;20541;-49
2022/09/23 05:12:26;;;;;;;11.47;10.97;;;12.00;29.00;;;;;;4995838;28;20414;-49
2022/09/23 05:14:51;;;;;;;11.93;11.27;;;12.00;29.30;;;;;;4995520;28;20868;-52
2022/09/23 05:17:17;;;;;;;11.30;10.80;;;12.00;29.30;;;;;;4995410;28;20177;-53
2022/09/23 05:19:42;;;;;;;13.17;12.37;;;12.00;29.40;;;;;;4994967;28;20618;-49
2022/09/23 05:22:08;;;;;;;12.40;11.77;;;12.00;29.20;;;;;;5013060;28;20170;-51
2022/09/23 05:24:34;;;;;;;12.43;11.73;;;12.00;29.30;;;;;;4995094;28;20224;-49
2022/09/23 05:26:59;;;;;;;12.83;12.20;;;12.00;29.30;;;;;;4995635;28;20769;-47
2022/09/23 05:29:25;;;;;;;12.63;12.03;;;12.00;29.50;;;;;;4995331;28;20178;-51
2022/09/23 05:31:50;;;;;;;12.53;11.57;;;12.10;29.60;;;;;;4995228;28;20181;-48
2022/09/23 05:34:17;;;;;;;12.90;12.20;;;12.00;29.60;;;;;;4994716;28;20188;-47
2022/09/23 05:36:43;;;;;;;11.70;11.20;;;12.00;29.50;;;;;;5012866;28;20177;-48
2022/09/23 05:39:08;;;;;;;12.53;11.90;;;12.00;29.70;;;;;;4995331;28;20464;-49
2022/09/23 05:41:35;;;;;;;12.10;11.40;;;12.00;29.80;;;;;;4994797;28;20239;-52
2022/09/23 05:44:01;;;;;;;12.47;11.87;;;12.00;29.90;;;;;;4994873;28;20181;-51
2022/09/23 05:46:29;;;;;;;13.60;12.70;;;12.00;29.90;;;;;;4994694;28;20466;-50
2022/09/23 05:48:56;;;;;;;12.83;12.10;;;12.00;29.80;;;;;;5012297;28;20470;-47
2022/09/23 05:51:24;;;;;;;12.20;11.50;;;12.00;29.70;;;;;;4995310;28;20420;-50
2022/09/23 05:53:51;;;;;;;12.57;11.97;;;12.00;29.90;;;;;;4993544;28;20820;-41
2022/09/23 05:56:20;;;;;;;12.80;12.10;;;12.00;29.90;;;;;;4993039;28;20412;-41
2022/09/23 05:58:48;;;;;;;12.67;11.97;;;12.00;29.80;;;;;;4993497;28;20498;-40
2022/09/23 06:01:25;;;;;;;13.67;12.83;;;12.10;29.60;;;;;;4994067;28;20503;-49
2022/09/23 06:03:53;;;;;;;13.07;12.17;;;12.10;29.50;;;;;;4994299;28;20431;-50
2022/09/23 06:06:24;;;;;;;12.30;11.80;;;12.20;29.40;;;;;;5012002;28;20408;-48
2022/09/23 06:08:50;;;;;;;12.60;11.80;;;12.20;29.40;;;;;;4994574;28;20412;-53
2022/09/23 06:11:16;;;;;;;13.70;12.60;;;12.20;29.20;;;;;;4994820;28;20439;-52
2022/09/23 06:13:42;;;;;;;13.53;12.80;;;12.10;29.10;;;;;;5012270;28;20904;-51
2022/09/23 06:16:13;;;;;;;12.80;12.10;;;11.90;29.60;;;;;;4994724;28;20630;-50
2022/09/23 06:18:43;;;;;;;13.03;12.33;;;11.90;30.00;;;;;;4994591;28;20205;-52
2022/09/23 06:21:15;;;;;;;13.10;12.40;;;12.00;29.90;;;;;;4994243;28;20419;-48
2022/09/23 06:23:41;;;;;;;13.13;12.43;;;12.10;29.70;;;;;;4994237;28;20775;-48
2022/09/23 06:26:08;;;;;;;13.70;13.10;;;12.20;29.70;;;;;;4994522;28;20848;-53
2022/09/23 06:28:37;;;;;;;13.50;12.80;;;12.20;29.20;;;;;;4994281;28;20422;-52
2022/09/23 06:31:07;;;;;;;14.53;13.73;;;12.30;29.30;;;;;;4993913;28;20420;-52
2022/09/23 06:33:33;;;;;;;17.67;13.67;;;12.30;29.30;;;;;;4994153;28;20424;-48
2022/09/23 06:36:02;;;;;;;13.37;12.57;;;12.40;29.20;;;;;;4994441;28;20417;-47
2022/09/23 06:38:28;;;;;;;13.00;12.40;;;12.40;29.10;;;;;;4994207;28;20467;-49
2022/09/23 06:40:56;;;;;;;13.50;12.73;;;12.40;28.90;;;;;;4993970;28;20412;-47
2022/09/23 06:43:22;;;;;;;13.57;12.80;;;12.40;29.40;;;;;;4993782;28;20423;-50
2022/09/23 06:45:56;;;;;;;13.63;12.30;;;12.40;29.40;;;;;;4993528;28;20413;-52
2022/09/23 06:48:23;;;;;;;13.90;13.10;;;12.40;29.30;;;;;;4994057;28;20425;-50
2022/09/23 06:50:50;;;;;;;13.20;12.40;;;12.30;29.30;;;;;;4994281;28;20853;-50
2022/09/23 06:53:16;;;;;;;13.10;12.50;;;12.20;28.80;;;;;;4993598;28;20459;-48
2022/09/23 06:55:42;;;;;;;13.07;12.20;;;12.10;29.00;;;;;;4993523;28;20408;-48
2022/09/23 06:58:09;;;;;;;12.73;12.10;;;12.20;28.90;;;;;;4993799;28;20464;-53
2022/09/23 07:00:35;;;;;;;12.63;12.03;;;12.20;28.70;;;;;;4993038;28;20543;-49
2022/09/23 07:03:06;;;;;;;12.80;12.20;;;12.20;28.40;;;;;;4993402;28;20409;-50
2022/09/23 07:05:31;;;;;;;12.47;11.87;;;12.00;28.80;;;;;;4992691;28;20449;-42
2022/09/23 07:07:58;;;;;;;12.77;12.17;;;12.10;29.20;;;;;;4991826;28;20496;-42
2022/09/23 07:10:26;;;;;;;11.97;11.47;;;12.10;29.10;;;;;;4992242;28;20243;-42
2022/09/23 07:12:52;;;;;;;14.60;13.60;;;12.20;29.40;;;;;;4992132;28;20991;-41
2022/09/23 07:15:18;;;;;;;12.80;11.90;;;12.30;28.80;;;;;;4991769;28;20511;-42
2022/09/23 07:17:43;;;;;;;13.47;12.73;;;12.40;29.50;;;;;;4991150;28;20215;-41
2022/09/23 07:20:10;;;;;;;12.93;12.23;;;12.50;29.10;;;;;;4991377;28;20178;-43
2022/09/23 07:22:36;;;;;;;12.07;11.50;;;12.70;28.70;;;;;;4993273;28;20174;-48
2022/09/23 07:25:03;;;;;;;12.50;12.00;;;12.80;28.10;;;;;;4993155;28;20440;-51
2022/09/23 07:27:28;;;;;;;12.73;12.03;;;12.80;28.20;;;;;;4993358;28;20515;-52
2022/09/23 07:29:54;;;;;;;13.73;12.80;;;12.90;27.80;;;;;;4993364;28;20500;-53
2022/09/23 07:32:22;;;;;;;13.97;12.97;;;12.90;27.50;;;;;;4992894;28;20195;-48
2022/09/23 07:34:48;;;;;;;13.97;13.10;;;12.90;27.60;;;;;;4992996;28;20228;-53
2022/09/23 07:37:15;;;;;;;14.33;13.63;;;12.90;27.60;;;;;;4993044;28;20423;-53
2022/09/23 07:39:41;;;;;;;13.03;12.43;;;13.00;27.50;;;;;;4993203;28;20416;-50
2022/09/23 07:42:07;;;;;;;12.57;12.00;;;13.10;27.30;;;;;;4992861;28;20408;-49
2022/09/23 07:44:33;;;;;;;13.60;13.00;;;13.20;27.20;;;;;;4992840;28;20415;-47
2022/09/23 07:46:59;;;;;;;14.10;13.20;;;13.30;27.10;;;;;;4992877;28;20435;-47
2022/09/23 07:49:26;;;;;;;14.23;13.53;;;13.30;26.50;;;;;;4993248;28;20928;-47
2022/09/23 07:51:52;;;;;;;13.73;13.03;;;13.30;26.50;;;;;;5010419;28;20252;-47
2022/09/23 07:54:18;;;;;;;13.77;12.93;;;13.40;26.60;;;;;;4992963;28;20412;-48
2022/09/23 07:56:45;;;;;;;14.60;13.90;;;13.40;26.60;;;;;;4992330;28;20530;-42
2022/09/23 07:59:17;;;;;;;13.80;13.00;;;13.40;26.60;;;;;;4991765;28;20468;-43
2022/09/23 08:01:45;;;;;;;14.47;13.17;;;13.40;26.80;;;;;;4993049;28;20495;-49
2022/09/23 08:04:14;;;;;;;13.23;12.57;;;13.50;26.70;;;;;;4992706;28;20414;-48
2022/09/23 08:06:41;;;;;;;13.13;12.53;;;13.50;26.60;;;;;;4992582;28;20408;-49
2022/09/23 08:09:08;;;;;;;15.47;14.53;;;13.60;26.40;;;;;;4992545;28;20424;-48
2022/09/23 08:11:35;;;;;;;14.43;13.43;;;13.60;26.40;;;;;;4992726;28;20413;-50
2022/09/23 08:14:00;;;;;;;15.07;14.27;;;13.60;26.40;;;;;;4993009;28;20428;-48
2022/09/23 08:16:26;;;;;;;14.10;13.30;;;13.70;26.30;;;;;;4991804;28;20415;-47
2022/09/23 08:18:52;;;;;;;15.37;14.57;;;13.70;26.30;;;;;;4992441;28;20215;-51
2022/09/23 08:21:19;;;;;;;14.37;13.67;;;13.70;26.50;;;;;;5025162;28;20177;-47
2022/09/23 08:23:45;;;;;;;14.50;13.70;;;13.70;26.40;;;;;;4992682;28;20177;-48
2022/09/23 08:26:11;;;;;;;13.23;12.53;;;13.70;26.60;;;;;;4992903;28;20428;-50
2022/09/23 08:28:37;;;;;;;13.50;12.90;;;13.80;26.50;;;;;;4992661;28;20482;-49
2022/09/23 08:31:03;;;;;;;13.17;12.47;;;13.80;26.60;;;;;;4992398;28;20417;-48
2022/09/23 08:33:28;;;;;;;13.47;12.77;;;13.90;26.50;;;;;;4992411;28;20181;-47
2022/09/23 08:35:59;;;;;;;15.37;14.23;;;13.90;26.60;;;;;;4992248;28;20615;-48
2022/09/23 08:38:25;;;;;;;14.70;13.70;;;13.90;26.60;;;;;;4992515;28;20328;-49
2022/09/23 08:40:53;;;;;;;14.63;13.33;;;14.00;26.50;;;;;;4992544;28;20495;-48
2022/09/23 08:43:28;;;;;;;14.00;13.10;;;13.90;26.50;;;;;;4992222;28;20656;-49
2022/09/23 08:45:56;;;;;;;13.37;12.77;;;13.90;26.60;;;;;;5010280;28;20424;-47
2022/09/23 08:48:35;;;;;;;13.47;12.87;;;14.00;26.70;;;;;;4992356;28;20416;-47
2022/09/23 08:51:05;;;;;;;13.57;12.90;;;14.10;26.00;;;;;;4992076;28;20507;-47
2022/09/23 08:53:36;;;;;;;13.63;13.03;;;14.20;26.00;;;;;;4992734;28;20463;-49
2022/09/23 08:56:18;;;;;;;14.13;13.30;;;14.30;25.60;;;;;;4992163;28;20451;-47
2022/09/23 08:59:04;;;;;;;13.03;12.43;;;14.50;25.30;;;;;;4992591;28;20455;-49
2022/09/23 09:01:44;;;;;;;14.00;12.83;;;14.50;25.10;;;;;;4992531;28;20439;-47
2022/09/23 09:04:22;;;;;;;13.73;13.03;;;14.60;25.10;;;;;;4992631;28;20417;-52
2022/09/23 09:06:59;;;;;;;12.17;11.60;;;14.70;25.40;;;;;;4992149;28;20434;-49
2022/09/23 09:10:07;;;;;;;12.67;12.07;;;14.80;24.60;;;;;;4994894;28;20786;-47
2022/09/23 09:12:44;;;;;;;13.50;12.63;;;15.00;23.60;;;;;;4995796;28;20509;-48
2022/09/23 09:15:21;;;;;;;12.13;11.43;;;15.10;23.40;;;;;;4995490;28;20419;-46
2022/09/23 09:18:11;;;;;;;12.37;11.87;;;15.20;23.30;;;;;;4995817;28;20975;-50
2022/09/23 09:21:12;;;;;;;12.70;12.00;;;15.40;23.10;;;;;;4995671;28;20907;-50
2022/09/23 09:24:15;;;;;;;12.07;11.13;;;15.50;22.80;;;;;;4995349;28;20668;-48
2022/09/23 09:26:40;;;;;;;12.47;11.97;;;15.60;22.70;;;;;;4985898;28;20439;-46
2022/09/23 09:29:18;;;;;;;13.27;12.10;;;15.70;22.70;;;;;;4995389;28;20780;-48
2022/09/23 09:31:46;;;;;;;13.00;12.40;;;15.70;22.80;;;;;;4995439;28;20223;-46
2022/09/23 09:34:25;;;;;;;13.53;12.90;;;15.80;22.70;;;;;;4995136;28;20417;-48
2022/09/23 09:37:19;;;;;;;12.10;11.60;;;15.80;22.60;;;;;;4995573;28;20792;-46
2022/09/23 09:39:45;;;;;;;13.30;12.60;;;16.00;22.70;;;;;;4995564;28;20420;-40
2022/09/23 09:42:23;;;;;;;12.37;11.87;;;16.10;22.40;;;;;;4993341;28;20404;-40
2022/09/23 09:44:57;;;;;;;12.77;12.17;;;16.10;22.10;;;;;;4994189;28;20507;-40
2022/09/23 09:47:47;;;;;;;13.03;11.93;;;16.20;22.40;;;;;;4992825;28;20826;-39
2022/09/23 09:50:20;;;;;;;12.00;11.40;;;16.30;21.90;;;;;;4993245;28;20420;-40
2022/09/23 09:52:47;;;;;;;12.77;12.00;;;16.40;21.80;;;;;;4992738;28;20404;-41
2022/09/23 09:55:12;;;;;;;12.70;12.20;;;16.50;21.80;;;;;;4992994;28;20427;-41
2022/09/23 09:57:51;;;;;;;12.70;12.10;;;16.60;21.80;;;;;;4992838;28;20464;-41
2022/09/23 10:00:17;;;;;;;12.37;11.87;;;16.70;21.50;;;;;;4993117;28;20179;-42
2022/09/23 10:02:43;;;;;;;16.60;15.37;;;16.80;21.20;;;;;;4993157;28;20413;-41
2022/09/23 10:05:24;;;;;;;11.70;11.20;;;16.80;21.50;;;;;;4994329;28;20839;-41
2022/09/23 10:07:50;;;;;;;11.73;11.17;;;16.90;21.40;;;;;;4993460;28;20423;-41
2022/09/23 10:10:24;;;;;;;11.60;10.80;;;17.00;21.50;;;;;;4992363;28;20412;-42
2022/09/23 10:12:51;;;;;;;11.43;11.03;;;17.20;21.80;;;;;;4993019;28;20230;-41
2022/09/23 10:15:30;;;;;;;11.47;10.77;;;17.20;20.60;;;;;;4993417;28;20428;-41
2022/09/23 10:17:56;;;;;;;11.10;10.60;;;17.10;20.60;;;;;;4993143;28;20471;-40
2022/09/23 10:20:22;;;;;;;11.33;10.90;;;17.10;20.70;;;;;;4992119;28;20451;-41
2022/09/23 10:22:48;;;;;;;11.90;11.30;;;17.20;21.10;;;;;;4992691;28;20487;-40
2022/09/23 10:25:24;;;;;;;10.93;10.53;;;17.30;20.40;;;;;;4992322;28;20193;-40
2022/09/23 10:27:50;;;;;;;10.73;10.33;;;17.30;20.30;;;;;;4993047;28;20831;-40
2022/09/23 10:30:24;;;;;;;11.70;11.10;;;17.30;20.40;;;;;;4992865;28;20412;-42
2022/09/23 10:32:53;;;;;;;11.80;10.63;;;17.40;20.60;;;;;;4992874;28;20235;-42
2022/09/23 10:35:27;;;;;;;11.17;10.73;;;17.40;20.50;;;;;;4992879;28;20523;-40
2022/09/23 10:37:54;;;;;;;11.40;10.70;;;17.60;21.00;;;;;;4992735;28;20476;-42
2022/09/23 10:46:38;;;;;;;11.77;11.07;;;17.60;20.90;;;;;;5010819;28;20844;-43
2022/09/23 10:49:22;;;;;;;14.60;11.83;;;17.60;20.10;;;;;;4992318;28;20448;-42
2022/09/23 10:52:06;;;;;;;11.00;10.50;;;17.60;20.70;;;;;;4992186;28;20435;-40
2022/09/23 10:54:35;;;;;;;12.00;11.03;;;17.60;20.80;;;;;;4992834;28;20404;-45
2022/09/23 11:00:02;;;;;;;11.17;10.67;;;17.80;21.00;;;;;;5010423;28;20438;-46
2022/09/23 11:02:50;;;;;;;11.10;10.60;;;17.80;20.40;;;;;;4992482;28;20411;-40
2022/09/23 11:05:28;;;;;;;11.57;10.97;;;17.90;20.30;;;;;;4993047;28;20802;-43
2022/09/23 11:08:01;;;;;;;10.57;10.07;;;17.90;19.90;;;;;;4992438;28;20412;-40
2022/09/23 11:11:00;;;;;;;12.30;11.70;;;17.90;20.30;;;;;;4992772;28;20424;-46
2022/09/23 11:14:15;;;;;;;12.03;11.30;;;17.90;20.20;;;;;;4992682;28;20420;-41
2022/09/23 11:16:44;;;;;;;11.43;10.77;;;17.90;20.00;;;;;;4975209;28;20409;-42
2022/09/23 11:19:24;;;;;;;11.27;10.67;;;17.90;20.90;;;;;;4992132;28;20486;-41
2022/09/23 11:21:57;;;;;;;12.60;11.80;;;17.90;20.50;;;;;;4992701;28;20415;-41
2022/09/23 11:24:47;;;;;;;12.07;11.43;;;17.90;20.30;;;;;;4992347;28;20420;-43
2022/09/23 11:27:24;;;;;;;11.20;10.70;;;18.00;20.30;;;;;;4991820;28;20415;-41
2022/09/23 11:30:44;;;;;;;12.00;11.10;;;18.00;20.00;;;;;;4992350;28;20419;-41
2022/09/23 11:33:18;;;;;;;11.23;10.47;;;18.00;20.30;;;;;;4949401;29;20426;-40
2022/09/23 11:35:48;;;;;;;13.27;12.47;;;17.90;20.30;;;;;;4933597;29;20947;-42
2022/09/23 11:38:26;;;;;;;11.90;11.20;;;17.90;20.30;;;;;;4972785;28;20904;-41
2022/09/23 11:40:59;;;;;;;12.90;12.20;;;18.00;20.30;;;;;;4991937;28;20474;-41
2022/09/23 11:43:35;;;;;;;11.93;11.23;;;18.00;20.30;;;;;;4992519;28;20503;-44
2022/09/23 11:46:12;;;;;;;11.60;11.10;;;17.90;20.30;;;;;;4991805;28;20456;-41
2022/09/23 11:48:50;;;;;;;12.30;11.60;;;17.90;20.30;;;;;;4991927;28;20407;-41
2022/09/23 11:51:41;;;;;;;11.97;11.37;;;17.90;20.30;;;;;;4992124;28;20432;-43
2022/09/23 11:54:21;;;;;;;12.50;11.80;;;17.90;20.30;;;;;;4992348;28;20428;-42
2022/09/23 11:56:53;;;;;;;12.40;11.70;;;17.90;20.30;;;;;;4992190;28;20447;-41
2022/09/23 11:59:46;;;;;;;12.07;11.50;;;17.90;20.60;;;;;;4992236;28;20842;-41
2022/09/23 12:02:25;;;;;;;11.97;11.27;;;17.80;20.20;;;;;;4992357;28;20495;-42
2022/09/23 12:05:08;;;;;;;11.33;10.73;;;17.90;20.50;;;;;;4992260;28;20412;-41
2022/09/23 12:07:47;;;;;;;12.03;11.33;;;17.90;20.30;;;;;;4991968;28;20829;-41
2022/09/23 12:10:14;;;;;;;11.77;11.17;;;18.10;20.40;;;;;;4992079;28;20422;-40
2022/09/23 12:12:58;;;;;;;11.80;11.20;;;18.10;19.80;;;;;;4991835;28;20528;-40
2022/09/23 12:15:41;;;;;;;12.13;11.43;;;18.20;20.00;;;;;;4992465;28;20436;-41
2022/09/23 12:18:22;;;;;;;12.03;11.27;;;18.20;19.90;;;;;;4992733;28;20537;-42
2022/09/23 12:21:25;;;;;;;11.87;11.17;;;18.20;19.70;;;;;;4991878;28;20803;-41
2022/09/23 12:24:14;;;;;;;12.00;11.40;;;18.20;20.00;;;;;;4992618;28;20849;-41
2022/09/23 12:26:42;;;;;;;12.27;11.67;;;18.20;20.00;;;;;;4992452;28;20424;-41
2022/09/23 12:29:12;;;;;;;13.03;12.43;;;18.20;20.50;;;;;;4991808;28;20427;-41
2022/09/23 12:31:39;;;;;;;13.17;12.47;;;18.20;20.50;;;;;;4992280;28;20423;-42
2022/09/23 12:34:33;;;;;;;11.40;10.80;;;18.20;19.90;;;;;;4992550;28;20404;-42
2022/09/23 12:37:03;;;;;;;12.93;11.87;;;18.20;20.40;;;;;;4991602;28;20432;-45
2022/09/23 12:39:36;;;;;;;12.80;11.87;;;18.20;20.10;;;;;;4993306;28;20456;-41
2022/09/23 12:42:14;;;;;;;11.53;10.93;;;18.20;20.00;;;;;;4992380;28;20848;-40
2022/09/23 12:44:42;;;;;;;12.00;11.33;;;18.20;20.50;;;;;;4995125;28;20494;-40
2022/09/23 12:47:20;;;;;;;13.97;12.70;;;18.20;20.00;;;;;;4995758;28;20943;-40
2022/09/23 12:49:47;;;;;;;14.07;13.07;;;18.20;20.40;;;;;;4995646;28;20938;-44
2022/09/23 12:52:12;;;;;;;12.53;11.83;;;18.20;20.50;;;;;;4995425;28;20409;-43
2022/09/23 12:54:43;;;;;;;13.17;12.37;;;18.20;20.40;;;;;;4995631;28;20978;-44
2022/09/23 12:57:32;;;;;;;12.20;11.40;;;18.20;20.50;;;;;;4995626;28;20181;-42
2022/09/23 13:00:21;;;;;;;12.83;12.10;;;18.20;20.40;;;;;;4994661;28;20436;-41
2022/09/23 13:06:37;;;;;;;12.63;12.03;;;18.20;19.90;;;;;;4994991;28;20420;-41
2022/09/23 13:06:39;;;;;;;13.07;12.47;;;18.20;20.40;;;;;;5012277;28;20479;-40
2022/09/23 13:08:39;;;;;;;12.70;12.00;;;18.20;20.00;;;;;;5002772;28;20461;-43
2022/09/23 13:11:14;;;;;;;12.40;11.80;;;18.20;19.90;;;;;;5012628;28;20411;-41